Time;durP1;ratioP1;P1;durP2;ratioP2;P2;SDS_P1;SDS_P2;PMS_P1;PMS_P2;Temp;Humidity;BMP_temperature;BMP_pressure;BME280_temperature;BME280_humidity;BME280_pressure;Samples;Min_cycle;Max_cycle;Signal;HPM_P1;HPM_P2
2023/07/25 00:00:31;;;;;;;6.20;3.20;;;;;;;14.35;100.00;99221.59;5094666;28;20208;-81
2023/07/25 00:02:57;;;;;;;8.30;3.90;;;;;;;14.29;100.00;99217.53;5094998;28;20224;-82
2023/07/25 00:05:23;;;;;;;6.13;3.53;;;;;;;14.40;100.00;99230.06;5094411;28;20281;-81
2023/07/25 00:07:50;;;;;;;6.90;3.17;;;;;;;14.38;100.00;99233.69;5094395;28;20249;-82
2023/07/25 00:10:18;;;;;;;12.43;4.33;;;;;;;14.26;100.00;99240.47;5094665;28;20211;-81
2023/07/25 00:12:45;;;;;;;5.27;2.87;;;;;;;14.21;100.00;99238.09;5094204;28;20295;-82
2023/07/25 00:15:12;;;;;;;6.13;3.43;;;;;;;14.17;100.00;99230.44;5094701;28;20729;-83
2023/07/25 00:17:38;;;;;;;4.43;2.67;;;;;;;14.12;100.00;99237.72;5094796;28;20743;-81
2023/07/25 00:20:06;;;;;;;4.97;2.83;;;;;;;14.03;100.00;99239.91;5094589;28;20200;-82
2023/07/25 00:22:32;;;;;;;10.47;3.40;;;;;;;14.02;100.00;99237.34;5093827;28;20217;-82
2023/07/25 00:24:59;;;;;;;6.80;3.70;;;;;;;13.93;100.00;99238.66;5094089;28;20632;-81
2023/07/25 00:27:26;;;;;;;7.73;3.77;;;;;;;13.96;100.00;99235.06;5094153;28;20208;-82
2023/07/25 00:29:53;;;;;;;14.10;3.53;;;;;;;13.90;100.00;99251.97;5094028;28;20231;-83
2023/07/25 00:32:19;;;;;;;15.10;4.30;;;;;;;13.78;100.00;99247.34;5094814;28;20244;-81
2023/07/25 00:34:46;;;;;;;8.27;3.70;;;;;;;13.73;100.00;99246.72;5094639;28;20244;-82
2023/07/25 00:37:12;;;;;;;4.70;3.40;;;;;;;13.80;100.00;99256.00;5093891;28;20200;-80
2023/07/25 00:39:38;;;;;;;4.77;3.57;;;;;;;13.87;100.00;99263.47;5094354;28;20204;-83
2023/07/25 00:42:06;;;;;;;8.27;3.40;;;;;;;13.95;100.00;99270.91;5094584;28;20635;-83
2023/07/25 00:44:34;;;;;;;8.50;3.10;;;;;;;13.87;100.00;99288.84;5094063;28;20272;-82
2023/07/25 00:47:00;;;;;;;7.40;3.17;;;;;;;13.99;100.00;99292.59;5094597;28;20204;-82
2023/07/25 00:49:27;;;;;;;13.33;3.70;;;;;;;13.95;100.00;99305.03;5094479;28;20231;-82
2023/07/25 00:51:53;;;;;;;8.40;2.80;;;;;;;14.17;100.00;99298.66;5093989;28;20678;-84
2023/07/25 00:54:20;;;;;;;8.40;3.23;;;;;;;14.22;100.00;99313.25;5093821;28;20235;-82
2023/07/25 00:56:46;;;;;;;11.33;3.97;;;;;;;14.15;100.00;99316.28;5093879;28;20215;-82
2023/07/25 00:59:13;;;;;;;9.17;2.90;;;;;;;14.33;100.00;99298.72;5094113;28;20235;-82
2023/07/25 01:01:41;;;;;;;8.50;3.03;;;;;;;14.48;100.00;99301.38;5093950;28;20208;-82
2023/07/25 01:04:07;;;;;;;7.47;3.07;;;;;;;14.61;100.00;99309.50;5093364;28;20282;-83
2023/07/25 01:06:34;;;;;;;4.63;2.60;;;;;;;14.73;100.00;99307.13;5093880;28;20209;-82
2023/07/25 01:09:00;;;;;;;12.83;3.03;;;;;;;14.61;100.00;99327.88;5093584;28;20234;-84
2023/07/25 01:11:28;;;;;;;7.87;3.40;;;;;;;14.40;100.00;99327.19;5095050;28;20212;-84
2023/07/25 01:13:54;;;;;;;5.93;2.77;;;;;;;14.50;100.00;99327.56;5095219;28;20229;-84
2023/07/25 01:16:25;;;;;;;7.17;3.10;;;;;;;14.23;100.00;99317.59;5097362;28;20205;-82
2023/07/25 01:18:54;;;;;;;5.43;2.67;;;;;;;14.35;100.00;99309.97;5096203;28;20238;-84
2023/07/25 01:21:22;;;;;;;9.57;3.23;;;;;;;14.35;100.00;99316.09;5095495;28;20644;-84
2023/07/25 01:23:49;;;;;;;14.03;2.90;;;;;;;14.52;100.00;99311.72;5095562;28;20256;-83
2023/07/25 01:26:18;;;;;;;9.80;3.20;;;;;;;14.65;100.00;99307.56;5095269;28;20280;-84
2023/07/25 01:28:45;;;;;;;5.30;2.60;;;;;;;14.77;100.00;99316.56;5095804;28;20228;-83
2023/07/25 01:31:11;;;;;;;10.13;2.77;;;;;;;14.70;100.00;99335.25;5094972;28;20203;-82
2023/07/25 01:33:37;;;;;;;9.97;3.50;;;;;;;14.60;100.00;99341.94;5095112;28;20228;-80
2023/07/25 01:36:04;;;;;;;6.00;2.47;;;;;;;14.77;100.00;99345.44;5095336;28;20199;-83
2023/07/25 01:38:31;;;;;;;8.63;2.80;;;;;;;14.76;100.00;99354.25;5094626;28;20618;-82
2023/07/25 01:40:57;;;;;;;5.43;2.33;;;;;;;14.44;100.00;99370.75;5095279;28;20208;-81
2023/07/25 01:43:25;;;;;;;10.03;3.23;;;;;;;14.44;100.00;99338.38;5095315;28;20230;-82
2023/07/25 01:45:51;;;;;;;4.40;2.37;;;;;;;14.48;100.00;99350.44;5095064;28;20759;-83
2023/07/25 01:48:18;;;;;;;4.57;2.73;;;;;;;14.63;100.00;99349.66;5094903;28;20207;-81
2023/07/25 01:50:44;;;;;;;10.50;2.63;;;;;;;14.53;100.00;99356.28;5097325;28;20207;-83
2023/07/25 01:53:11;;;;;;;5.70;2.77;;;;;;;14.62;100.00;99353.19;5095731;28;20229;-82
2023/07/25 01:55:37;;;;;;;6.13;2.50;;;;;;;14.39;100.00;99353.53;5094966;28;20246;-81
2023/07/25 01:58:04;;;;;;;9.60;2.90;;;;;;;14.26;100.00;99342.81;5095043;28;20211;-82
2023/07/25 02:00:31;;;;;;;7.27;2.80;;;;;;;14.05;100.00;99329.91;5095387;28;20211;-82
2023/07/25 02:02:58;;;;;;;10.43;3.60;;;;;;;14.23;100.00;99314.97;5096364;28;20708;-82
2023/07/25 02:05:24;;;;;;;7.10;2.80;;;;;;;14.39;100.00;99303.63;5096232;28;20244;-83
2023/07/25 02:07:51;;;;;;;10.33;3.53;;;;;;;14.25;100.00;99320.13;5096100;28;20204;-84
2023/07/25 02:10:17;;;;;;;4.97;2.63;;;;;;;14.24;100.00;99302.69;5095481;28;20713;-81
2023/07/25 02:12:44;;;;;;;4.80;2.93;;;;;;;14.34;100.00;99293.38;5097039;28;20231;-85
2023/07/25 02:15:10;;;;;;;6.43;2.90;;;;;;;14.33;100.00;99304.84;5096584;28;20254;-80
2023/07/25 02:17:38;;;;;;;9.90;3.00;;;;;;;14.37;100.00;99301.13;5097559;28;20261;-83
2023/07/25 02:20:06;;;;;;;7.00;3.07;;;;;;;14.54;100.00;99304.63;5100227;28;20200;-83
2023/07/25 02:22:32;;;;;;;8.90;3.07;;;;;;;14.66;100.00;99302.19;5098739;28;20216;-81
2023/07/25 02:24:59;;;;;;;8.97;2.70;;;;;;;14.47;100.00;99327.75;5098745;28;20255;-81
2023/07/25 02:27:25;;;;;;;12.47;3.23;;;;;;;14.43;100.00;99318.28;5098841;28;20230;-81
2023/07/25 02:29:52;;;;;;;8.03;3.27;;;;;;;14.45;100.00;99311.22;5099237;28;20225;-81
2023/07/25 02:32:18;;;;;;;11.83;3.17;;;;;;;14.35;100.00;99315.22;5099487;28;20204;-83
2023/07/25 02:34:46;;;;;;;7.80;3.13;;;;;;;14.34;100.00;99300.44;5101450;28;20224;-83
2023/07/25 02:37:12;;;;;;;9.17;3.00;;;;;;;14.46;100.00;99303.25;5101788;28;20265;-85
2023/07/25 02:39:39;;;;;;;6.07;3.20;;;;;;;14.34;100.00;99301.28;5101776;28;20704;-84
2023/07/25 02:42:06;;;;;;;11.23;3.50;;;;;;;14.34;100.00;99297.81;5102706;28;20211;-83
2023/07/25 02:44:32;;;;;;;7.37;2.50;;;;;;;14.45;100.00;99293.69;5099734;28;20254;-82
2023/07/25 02:46:58;;;;;;;6.27;2.77;;;;;;;14.47;100.00;99298.84;5099584;28;20212;-84
2023/07/25 02:49:25;;;;;;;3.80;2.70;;;;;;;14.58;100.00;99300.94;5098055;28;20729;-82
2023/07/25 02:51:53;;;;;;;10.47;2.80;;;;;;;14.56;100.00;99300.13;5098179;28;20204;-81
2023/07/25 02:54:19;;;;;;;8.87;2.70;;;;;;;14.71;100.00;99299.34;5100779;28;20235;-82
2023/07/25 02:56:45;;;;;;;4.63;3.20;;;;;;;14.70;100.00;99302.88;5098917;28;20207;-83
2023/07/25 02:59:12;;;;;;;5.00;2.80;;;;;;;14.75;100.00;99305.28;5098731;28;20207;-82
2023/07/25 03:01:38;;;;;;;9.53;2.70;;;;;;;14.82;100.00;99304.84;5098590;28;20626;-82
2023/07/25 03:04:05;;;;;;;3.80;3.00;;;;;;;14.62;100.00;99313.81;5100692;28;20232;-83
2023/07/25 03:06:31;;;;;;;9.93;3.50;;;;;;;14.48;100.00;99311.88;5100211;28;20208;-81
2023/07/25 03:08:59;;;;;;;8.53;3.30;;;;;;;14.65;100.00;99299.69;5100180;28;20197;-82
2023/07/25 03:11:25;;;;;;;9.13;3.13;;;;;;;14.56;100.00;99308.00;5099911;28;20716;-83
2023/07/25 03:13:52;;;;;;;13.17;3.60;;;;;;;14.65;100.00;99295.25;5100046;28;20228;-84
2023/07/25 03:16:18;;;;;;;7.30;4.10;;;;;;;14.70;100.00;99303.72;5099927;28;20205;-82
2023/07/25 03:18:45;;;;;;;6.30;3.27;;;;;;;14.77;100.00;99306.03;5100298;28;20215;-83
2023/07/25 03:21:11;;;;;;;7.33;2.90;;;;;;;14.88;100.00;99314.16;5101302;28;20208;-83
2023/07/25 03:23:37;;;;;;;3.53;3.07;;;;;;;14.98;100.00;99317.97;5099037;28;20798;-84
2023/07/25 03:26:05;;;;;;;4.37;2.73;;;;;;;15.05;100.00;99306.22;5099157;28;20207;-82
2023/07/25 03:28:32;;;;;;;8.13;3.40;;;;;;;14.98;100.00;99325.88;5098736;28;20220;-81
2023/07/25 03:30:58;;;;;;;10.13;2.73;;;;;;;14.92;100.00;99335.88;5100484;28;20251;-82
2023/07/25 03:33:25;;;;;;;4.17;3.10;;;;;;;14.91;100.00;99331.56;5101066;28;20663;-84
2023/07/25 03:35:51;;;;;;;6.97;3.87;;;;;;;14.80;100.00;99334.75;5099652;28;20204;-83
2023/07/25 03:38:17;;;;;;;10.90;3.40;;;;;;;14.78;100.00;99326.94;5099805;28;20211;-84
2023/07/25 03:40:44;;;;;;;5.87;3.83;;;;;;;14.76;100.00;99310.44;5099941;28;20434;-83
2023/07/25 03:43:12;;;;;;;5.93;3.20;;;;;;;14.91;100.00;99302.66;5098309;28;20610;-84
2023/07/25 03:45:39;;;;;;;4.10;3.13;;;;;;;14.99;100.00;99297.81;5097959;28;20661;-81
2023/07/25 03:48:06;;;;;;;8.17;3.70;;;;;;;14.99;100.00;99309.19;5098171;28;20257;-81
2023/07/25 03:50:32;;;;;;;6.20;3.90;;;;;;;14.93;100.00;99321.81;5098535;28;20717;-85
2023/07/25 03:52:59;;;;;;;7.40;2.97;;;;;;;15.03;100.00;99328.25;5099673;28;20255;-82
2023/07/25 03:55:25;;;;;;;7.30;3.60;;;;;;;15.11;100.00;99328.69;5099254;28;20255;-82
2023/07/25 03:57:52;;;;;;;7.83;3.73;;;;;;;15.08;100.00;99331.47;5098145;28;20200;-82
2023/07/25 04:00:20;;;;;;;7.67;3.80;;;;;;;14.95;100.00;99354.94;5097312;28;20287;-82
2023/07/25 04:02:46;;;;;;;6.00;3.53;;;;;;;14.98;100.00;99359.19;5097336;28;20207;-82
2023/07/25 04:05:13;;;;;;;7.70;4.00;;;;;;;14.80;100.00;99356.63;5096009;28;20235;-83
2023/07/25 04:07:39;;;;;;;3.97;3.73;;;;;;;14.95;100.00;99344.44;5095954;28;20265;-81
2023/07/25 04:10:07;;;;;;;5.13;3.70;;;;;;;15.05;100.00;99348.25;5096860;28;20220;-81
2023/07/25 04:12:33;;;;;;;7.10;3.70;;;;;;;14.85;100.00;99359.00;5096948;28;20239;-81
2023/07/25 04:14:59;;;;;;;4.57;3.77;;;;;;;14.87;100.00;99350.13;5096584;28;20231;-83
2023/07/25 04:17:27;;;;;;;6.30;3.93;;;;;;;14.70;100.00;99340.50;5095778;28;20204;-83
2023/07/25 04:19:54;;;;;;;12.10;4.40;;;;;;;14.53;100.00;99319.53;5096514;28;20639;-84
2023/07/25 04:22:20;;;;;;;6.80;3.97;;;;;;;14.62;100.00;99307.72;5095991;28;20224;-81
2023/07/25 04:24:46;;;;;;;6.43;4.60;;;;;;;14.67;100.00;99305.69;5096489;28;20224;-83
2023/07/25 04:27:13;;;;;;;8.37;4.50;;;;;;;14.84;100.00;99302.97;5097170;28;20230;-83
2023/07/25 04:29:39;;;;;;;7.67;3.97;;;;;;;14.96;100.00;99293.56;5096596;28;20613;-83
2023/07/25 04:32:07;;;;;;;10.40;4.33;;;;;;;15.07;100.00;99306.97;5097628;28;20204;-82
2023/07/25 04:34:34;;;;;;;7.20;4.03;;;;;;;15.15;100.00;99314.44;5096921;28;20223;-81
2023/07/25 04:37:01;;;;;;;7.03;4.13;;;;;;;14.75;100.00;99321.03;5096216;28;20204;-83
2023/07/25 04:39:27;;;;;;;8.73;4.47;;;;;;;14.87;100.00;99304.59;5096070;28;20204;-82
2023/07/25 04:41:54;;;;;;;8.17;4.00;;;;;;;14.70;100.00;99308.97;5099457;28;20215;-84
2023/07/25 04:44:20;;;;;;;7.07;4.63;;;;;;;14.65;100.00;99297.06;5097665;28;20620;-84
2023/07/25 04:46:47;;;;;;;5.77;4.57;;;;;;;14.84;100.00;99296.88;5095424;28;20218;-84
2023/07/25 04:49:13;;;;;;;8.13;4.43;;;;;;;14.80;100.00;99305.84;5095420;28;20207;-82
2023/07/25 04:51:41;;;;;;;9.10;4.03;;;;;;;14.76;100.00;99306.97;5095252;28;20219;-82
2023/07/25 04:54:08;;;;;;;9.37;4.20;;;;;;;14.50;100.00;99306.56;5095943;28;20228;-84
2023/07/25 04:56:34;;;;;;;10.67;4.30;;;;;;;14.36;100.00;99296.78;5101314;28;20233;-85
2023/07/25 04:59:01;;;;;;;11.40;5.07;;;;;;;14.39;100.00;99282.63;5105575;28;20211;-83
2023/07/25 05:01:27;;;;;;;10.57;4.63;;;;;;;14.30;100.00;99273.50;5101833;28;20203;-83
2023/07/25 05:03:54;;;;;;;8.10;4.63;;;;;;;14.48;100.00;99263.78;5097219;28;20268;-85
2023/07/25 05:06:20;;;;;;;7.77;4.80;;;;;;;14.51;100.00;99276.75;5096227;28;20211;-84
2023/07/25 05:08:48;;;;;;;9.37;4.77;;;;;;;14.40;100.00;99268.59;5112590;22;20228;-83
2023/07/25 05:11:16;;;;;;;9.60;4.67;;;;;;;14.36;100.00;99261.81;5094181;28;20219;-80
2023/07/25 05:13:42;;;;;;;12.13;5.40;;;;;;;14.35;100.00;99250.47;5094448;28;20219;-81
2023/07/25 05:16:08;;;;;;;11.93;4.80;;;;;;;14.37;100.00;99253.00;5094722;28;20249;-79
2023/07/25 05:18:35;;;;;;;11.27;5.43;;;;;;;14.16;100.00;99257.63;5095002;28;20219;-82
2023/07/25 05:21:01;;;;;;;10.37;5.50;;;;;;;14.12;100.00;99240.34;5095305;28;20634;-81
2023/07/25 05:23:28;;;;;;;8.23;4.97;;;;;;;14.26;100.00;99235.22;5094116;28;20627;-81
2023/07/25 05:25:55;;;;;;;11.27;5.03;;;;;;;14.32;100.00;99232.25;5090628;28;20241;-79
2023/07/25 05:28:22;;;;;;;10.53;5.30;;;;;;;14.33;100.00;99225.22;5094221;28;20227;-81
2023/07/25 05:30:48;;;;;;;6.83;5.33;;;;;;;14.48;100.00;99232.28;5094322;28;20228;-81
2023/07/25 05:33:15;;;;;;;9.00;4.87;;;;;;;14.58;100.00;99251.03;5094122;28;20200;-80
2023/07/25 05:35:41;;;;;;;10.90;4.17;;;;;;;14.63;100.00;99268.25;5094360;28;20215;-79
2023/07/25 05:38:08;;;;;;;7.53;4.33;;;;;;;14.79;100.00;99301.56;5093723;28;20286;-80
2023/07/25 05:40:34;;;;;;;8.63;4.50;;;;;;;14.67;100.00;99318.81;5103208;28;20231;-84
2023/07/25 05:43:02;;;;;;;9.70;4.43;;;;;;;14.57;100.00;99328.09;5093788;28;20204;-80
2023/07/25 05:45:29;;;;;;;7.40;4.50;;;;;;;14.52;100.00;99343.25;5093984;28;20200;-81
2023/07/25 05:47:55;;;;;;;6.70;4.63;;;;;;;14.42;100.00;99333.22;5094679;28;20296;-81
2023/07/25 05:50:22;;;;;;;9.30;4.70;;;;;;;14.44;100.00;99352.34;5094749;28;20237;-80
2023/07/25 05:52:48;;;;;;;9.37;4.23;;;;;;;14.58;100.00;99346.41;5094427;28;20204;-81
2023/07/25 05:55:14;;;;;;;7.90;4.43;;;;;;;14.57;100.00;99354.38;5097857;28;20253;-81
2023/07/25 05:57:41;;;;;;;7.63;4.93;;;;;;;14.66;100.00;99354.72;5098465;28;20228;-81
2023/07/25 06:00:10;;;;;;;6.83;4.90;;;;;;;14.56;100.00;99385.03;5106917;28;20701;-82
2023/07/25 06:02:36;;;;;;;6.13;4.10;;;;;;;14.51;100.00;99402.81;5098358;28;20207;-82
2023/07/25 06:05:03;;;;;;;5.07;4.57;;;;;;;14.60;100.00;99385.72;5099270;28;20237;-81
2023/07/25 06:07:29;;;;;;;8.97;4.83;;;;;;;14.64;100.00;99393.34;5098197;28;20224;-79
2023/07/25 06:09:56;;;;;;;5.50;4.57;;;;;;;14.67;100.00;99397.63;5107040;28;20208;-81
2023/07/25 06:12:22;;;;;;;5.70;4.30;;;;;;;14.68;100.00;99415.91;5098910;28;20204;-80
2023/07/25 06:14:50;;;;;;;9.87;4.67;;;;;;;14.66;100.00;99409.03;5098734;28;20207;-82
2023/07/25 06:17:18;;;;;;;5.87;3.80;;;;;;;14.86;100.00;99424.59;5098414;28;20203;-81
2023/07/25 06:19:44;;;;;;;6.37;4.27;;;;;;;14.72;100.00;99418.38;5099483;28;20204;-82
2023/07/25 06:22:11;;;;;;;6.33;4.57;;;;;;;14.75;100.00;99432.22;5097576;28;20209;-81
2023/07/25 06:24:37;;;;;;;4.50;4.07;;;;;;;14.93;100.00;99426.94;5098683;28;20201;-81
2023/07/25 06:27:04;;;;;;;8.33;4.83;;;;;;;15.02;100.00;99418.53;5107666;28;20204;-81
2023/07/25 06:29:31;;;;;;;6.27;4.63;;;;;;;14.87;100.00;99460.47;5098667;28;20220;-81
2023/07/25 06:31:57;;;;;;;6.20;4.77;;;;;;;14.88;100.00;99464.81;5106504;28;20253;-80
2023/07/25 06:34:25;;;;;;;9.17;4.20;;;;;;;15.02;100.00;99435.13;5101307;28;20207;-80
2023/07/25 06:36:54;;;;;;;4.43;4.03;;;;;;;15.15;100.00;99447.66;5102060;28;20216;-83
2023/07/25 06:39:20;;;;;;;5.33;4.10;;;;;;;15.17;100.00;99487.84;5112108;28;20265;-82
2023/07/25 06:41:46;;;;;;;6.67;4.73;;;;;;;15.26;100.00;99490.84;5098965;28;20266;-81
2023/07/25 06:44:13;;;;;;;8.53;4.80;;;;;;;15.34;100.00;99505.34;5097852;28;20212;-81
2023/07/25 06:46:39;;;;;;;7.27;4.80;;;;;;;15.23;100.00;99503.28;5098089;28;20212;-81
2023/07/25 06:49:06;;;;;;;5.33;4.73;;;;;;;15.33;100.00;99506.28;5098322;28;20236;-80
2023/07/25 06:51:33;;;;;;;7.83;4.83;;;;;;;15.49;100.00;99512.41;5104875;28;20217;-82
2023/07/25 06:54:00;;;;;;;8.60;4.73;;;;;;;15.27;100.00;99513.56;5097394;28;20212;-81
2023/07/25 06:56:26;;;;;;;5.97;4.13;;;;;;;15.34;100.00;99536.88;5096686;28;20200;-83
2023/07/25 06:58:53;;;;;;;11.30;4.33;;;;;;;15.25;99.46;99575.03;5097526;28;20744;-81
2023/07/25 07:01:20;;;;;;;6.20;4.37;;;;;;;15.36;99.62;99564.81;5090063;28;20205;-82
2023/07/25 07:03:47;;;;;;;5.57;3.53;;;;;;;15.12;97.38;99601.09;5098313;28;20204;-80
2023/07/25 07:06:13;;;;;;;6.07;3.60;;;;;;;15.17;100.00;99558.81;5096948;28;20261;-82
2023/07/25 07:08:41;;;;;;;5.13;3.70;;;;;;;15.36;99.12;99545.53;5099845;28;20265;-79
2023/07/25 07:11:07;;;;;;;6.90;4.27;;;;;;;15.41;98.03;99578.56;5097136;28;20232;-82
2023/07/25 07:13:33;;;;;;;4.67;3.40;;;;;;;15.27;96.25;99602.94;5098023;28;20197;-80
2023/07/25 07:16:00;;;;;;;6.30;3.50;;;;;;;15.51;95.50;99613.13;5105389;28;20204;-80
2023/07/25 07:18:26;;;;;;;6.77;3.43;;;;;;;15.51;94.53;99622.78;5096384;28;20216;-80
2023/07/25 07:20:53;;;;;;;5.53;3.43;;;;;;;15.47;94.33;99630.84;5104988;28;20245;-81
2023/07/25 07:23:19;;;;;;;5.40;3.40;;;;;;;15.62;94.02;99641.50;5100443;28;20195;-80
2023/07/25 07:25:47;;;;;;;5.57;3.63;;;;;;;15.75;95.04;99623.31;5100617;28;20209;-80
2023/07/25 07:28:14;;;;;;;6.00;3.57;;;;;;;15.90;93.87;99627.75;5104924;28;20712;-81
2023/07/25 07:30:40;;;;;;;5.97;3.20;;;;;;;16.07;92.13;99646.13;5096873;28;20258;-79
2023/07/25 07:33:06;;;;;;;4.67;3.37;;;;;;;15.81;88.39;99717.72;5116417;28;20208;-79
2023/07/25 07:35:33;;;;;;;4.90;3.37;;;;;;;15.74;90.53;99711.94;5106169;28;20209;-81
2023/07/25 07:37:59;;;;;;;3.03;2.70;;;;;;;15.69;87.42;99730.53;5107776;28;20227;-81
2023/07/25 07:40:26;;;;;;;4.90;2.87;;;;;;;15.88;87.87;99753.31;5102302;28;20678;-80
2023/07/25 07:42:54;;;;;;;6.20;2.63;;;;;;;15.96;87.53;99759.03;5102472;28;20430;-80
2023/07/25 07:45:21;;;;;;;4.07;2.60;;;;;;;15.90;87.28;99759.34;5097288;28;20211;-80
2023/07/25 07:47:48;;;;;;;6.63;2.97;;;;;;;15.79;85.49;99780.09;5098112;28;20340;-82
2023/07/25 07:50:14;;;;;;;6.23;3.07;;;;;;;15.88;86.12;99769.13;5115287;28;20196;-79
2023/07/25 07:52:41;;;;;;;6.83;2.90;;;;;;;15.99;87.28;99761.47;5103772;28;20199;-79
2023/07/25 07:55:10;;;;;;;5.07;2.80;;;;;;;15.91;86.20;99773.34;5100184;28;20232;-81
2023/07/25 07:57:39;;;;;;;6.07;2.87;;;;;;;15.96;86.47;99763.44;5095360;28;20744;-80
2023/07/25 08:00:09;;;;;;;4.90;2.90;;;;;;;15.94;85.38;99760.88;5097122;28;20258;-80
2023/07/25 08:02:35;;;;;;;4.23;2.43;;;;;;;15.98;85.78;99769.50;5097268;28;20202;-78
2023/07/25 08:05:02;;;;;;;4.87;2.90;;;;;;;16.07;86.95;99740.03;5096150;28;20759;-80
2023/07/25 08:07:28;;;;;;;3.67;2.20;;;;;;;16.16;88.08;99709.75;5096404;28;20216;-81
2023/07/25 08:09:55;;;;;;;4.70;2.53;;;;;;;16.17;83.00;99799.16;5096184;28;20215;-81
2023/07/25 08:12:22;;;;;;;5.63;1.63;;;;;;;16.17;81.93;99835.19;5099101;28;20342;-80
2023/07/25 08:14:48;;;;;;;5.33;2.13;;;;;;;16.22;80.59;99849.81;5109739;28;20223;-80
2023/07/25 08:17:16;;;;;;;3.40;2.03;;;;;;;16.18;77.81;99908.84;5094935;28;20209;-80
2023/07/25 08:19:43;;;;;;;5.03;2.20;;;;;;;16.33;80.90;99886.13;5094271;28;20667;-79
2023/07/25 08:22:10;;;;;;;3.33;1.90;;;;;;;16.50;80.81;99872.09;5094092;28;20201;-78
2023/07/25 08:24:36;;;;;;;3.10;2.17;;;;;;;16.54;80.45;99875.41;5095215;28;20196;-78
2023/07/25 08:27:03;;;;;;;2.87;1.70;;;;;;;16.56;76.06;99956.06;5094359;28;20200;-79
2023/07/25 08:29:30;;;;;;;3.23;1.93;;;;;;;16.66;73.92;100046.91;5101777;28;20229;-79
2023/07/25 08:31:56;;;;;;;5.40;1.70;;;;;;;16.68;72.06;100084.56;5094264;28;20224;-79
2023/07/25 08:34:24;;;;;;;3.60;1.97;;;;;;;16.70;71.30;100121.41;5094523;28;20676;-80
2023/07/25 08:36:50;;;;;;;3.27;1.90;;;;;;;16.82;72.60;100107.63;5094244;28;20206;-79
2023/07/25 08:39:17;;;;;;;2.30;1.83;;;;;;;16.92;72.15;100115.09;5093877;28;20225;-79
2023/07/25 08:41:47;;;;;;;5.07;2.03;;;;;;;16.97;72.35;100115.72;5096564;28;20198;-79
2023/07/25 08:44:17;;;;;;;3.37;1.77;;;;;;;16.92;73.32;100097.47;5095731;28;20203;-80
2023/07/25 08:46:46;;;;;;;3.17;1.70;;;;;;;16.60;75.18;100057.75;5096400;28;20212;-79
2023/07/25 08:49:16;;;;;;;5.70;1.73;;;;;;;16.44;75.73;100033.97;5098055;28;20226;-80
2023/07/25 08:51:45;;;;;;;3.90;2.03;;;;;;;16.55;75.18;100022.91;5095872;28;20218;-80
2023/07/25 08:54:19;;;;;;;3.30;2.00;;;;;;;16.54;76.08;99992.19;5103661;28;20213;-80
2023/07/25 08:56:47;;;;;;;1.90;1.70;;;;;;;16.60;76.07;99991.88;5096006;28;20237;-82
2023/07/25 08:59:15;;;;;;;4.17;1.97;;;;;;;16.67;75.91;99980.09;5096186;28;20226;-82
2023/07/25 09:01:42;;;;;;;5.30;1.93;;;;;;;16.70;75.21;99997.53;5097061;28;20198;-80
2023/07/25 09:04:10;;;;;;;1.73;1.50;;;;;;;16.61;71.45;100061.22;5104639;28;20608;-81
2023/07/25 09:06:36;;;;;;;2.80;1.53;;;;;;;16.72;69.25;100102.88;5096211;28;20208;-80
2023/07/25 09:09:04;;;;;;;3.57;1.30;;;;;;;16.83;68.56;100162.09;5105691;28;20323;-80
2023/07/25 09:11:33;;;;;;;3.17;1.10;;;;;;;16.86;68.77;100163.72;5081484;28;20225;-80
2023/07/25 09:14:00;;;;;;;2.90;1.60;;;;;;;16.90;68.30;100201.31;5097337;28;20626;-79
2023/07/25 09:16:27;;;;;;;2.87;1.60;;;;;;;16.98;68.32;100222.88;5097893;28;20204;-81
2023/07/25 09:18:54;;;;;;;2.07;1.60;;;;;;;17.14;66.84;100226.47;5097660;28;20232;-80
2023/07/25 09:21:20;;;;;;;2.93;1.53;;;;;;;17.32;68.98;100210.66;5107849;28;20286;-80
2023/07/25 09:23:51;;;;;;;5.77;2.17;;;;;;;17.46;68.36;100205.53;5102798;28;20636;-80
2023/07/25 09:26:22;;;;;;;2.43;1.50;;;;;;;17.48;68.77;100211.56;5098716;28;20241;-79
2023/07/25 09:28:50;;;;;;;4.63;1.87;;;;;;;17.10;68.73;100201.19;5102049;28;20465;-79
2023/07/25 09:31:17;;;;;;;2.40;1.30;;;;;;;17.12;69.53;100193.19;5097656;28;20225;-81
2023/07/25 09:33:47;;;;;;;3.70;1.57;;;;;;;17.21;68.00;100176.94;5102958;28;20216;-82
2023/07/25 09:36:13;;;;;;;3.60;1.70;;;;;;;17.39;66.27;100220.81;5096175;28;20213;-80
2023/07/25 09:38:48;;;;;;;3.00;1.30;;;;;;;17.38;63.57;100306.22;5095967;28;20226;-81
2023/07/25 09:41:14;;;;;;;3.40;1.50;;;;;;;17.19;63.37;100369.56;5096156;28;20258;-80
2023/07/25 09:43:42;;;;;;;2.60;1.40;;;;;;;17.35;64.81;100348.56;5096821;28;20201;-81
2023/07/25 09:46:08;;;;;;;2.60;1.30;;;;;;;17.61;64.00;100342.00;5095694;28;20574;-80
2023/07/25 09:48:35;;;;;;;2.00;1.20;;;;;;;17.75;63.59;100359.78;5104316;28;20248;-81
2023/07/25 09:51:03;;;;;;;2.10;1.40;;;;;;;17.75;63.80;100361.59;5096501;28;20218;-80
2023/07/25 09:53:30;;;;;;;2.23;1.30;;;;;;;17.88;63.99;100344.22;5095332;28;20210;-80
2023/07/25 09:55:57;;;;;;;1.53;1.33;;;;;;;18.05;62.17;100343.34;5095809;28;20237;-82
2023/07/25 09:58:23;;;;;;;4.07;1.70;;;;;;;18.11;63.08;100369.44;5095428;28;20784;-81
2023/07/25 10:00:51;;;;;;;3.63;1.60;;;;;;;18.12;59.19;100437.22;5095855;28;20206;-78
2023/07/25 10:03:19;;;;;;;1.57;1.33;;;;;;;18.23;58.39;100479.78;5095682;28;20208;-80
2023/07/25 10:05:45;;;;;;;2.70;1.10;;;;;;;18.31;60.94;100468.84;5105889;28;20209;-79
2023/07/25 10:08:12;;;;;;;2.27;1.00;;;;;;;18.40;61.13;100419.94;5096205;28;20230;-79
2023/07/25 10:10:40;;;;;;;6.33;1.33;;;;;;;18.51;62.03;100406.16;5093467;28;20199;-77
2023/07/25 10:13:07;;;;;;;2.60;1.03;;;;;;;18.09;58.69;100434.72;5091212;28;20719;-78
2023/07/25 10:15:34;;;;;;;1.80;1.17;;;;;;;18.04;58.50;100477.22;5093531;28;20206;-81
2023/07/25 10:18:16;;;;;;;2.70;1.07;;;;;;;18.25;59.41;100456.81;5095642;28;20227;-81
2023/07/25 10:20:43;;;;;;;1.47;0.87;;;;;;;18.40;57.61;100465.72;5099450;28;20211;-78
2023/07/25 10:23:11;;;;;;;2.73;0.93;;;;;;;18.59;57.87;100494.72;5098038;28;20207;-80
2023/07/25 10:25:38;;;;;;;1.50;0.80;;;;;;;18.75;56.22;100517.72;5101822;28;20696;-79
2023/07/25 10:28:05;;;;;;;2.20;0.90;;;;;;;18.90;54.65;100527.53;5104189;28;20242;-83
2023/07/25 10:30:33;;;;;;;1.70;0.90;;;;;;;19.04;55.89;100571.78;5103239;28;20203;-81
2023/07/25 10:33:01;;;;;;;2.23;1.20;;;;;;;18.50;57.48;100560.44;5092726;28;20227;-79
2023/07/25 10:35:50;;;;;;;1.80;0.83;;;;;;;18.48;57.31;100525.28;5089845;28;20214;-82
2023/07/25 10:38:23;;;;;;;2.43;1.07;;;;;;;18.29;58.95;100507.69;5088929;28;20314;-80
2023/07/25 10:40:52;;;;;;;1.93;1.10;;;;;;;18.27;59.42;100469.91;5099855;28;20213;-81
2023/07/25 10:43:20;;;;;;;1.87;0.80;;;;;;;18.36;57.28;100479.19;5100600;28;20270;-80
2023/07/25 10:45:48;;;;;;;2.10;1.10;;;;;;;18.45;56.65;100495.44;5098538;28;20198;-80
2023/07/25 10:48:33;;;;;;;3.50;1.13;;;;;;;18.74;57.70;100479.84;5115163;28;20248;-78
2023/07/25 10:51:04;;;;;;;1.43;1.10;;;;;;;18.57;58.16;100466.66;5097542;28;20215;-76
2023/07/25 10:53:31;;;;;;;1.43;1.03;;;;;;;18.78;59.19;100430.28;5096118;28;20682;-79
2023/07/25 10:56:11;;;;;;;1.57;0.97;;;;;;;18.70;57.17;100445.72;5106185;28;20807;-79
2023/07/25 10:58:39;;;;;;;2.07;1.30;;;;;;;18.80;58.42;100441.69;5098096;28;20229;-77
2023/07/25 11:01:07;;;;;;;2.17;1.07;;;;;;;18.65;57.15;100446.81;5096941;28;20207;-79
2023/07/25 11:03:35;;;;;;;2.00;1.00;;;;;;;18.63;56.00;100479.53;5098104;28;20553;-80
2023/07/25 11:06:39;;;;;;;1.60;0.90;;;;;;;18.70;56.26;100495.97;5098317;28;20212;-80
2023/07/25 11:09:12;;;;;;;1.63;1.20;;;;;;;18.42;54.16;100534.38;5094396;28;20720;-79
2023/07/25 11:11:43;;;;;;;2.17;0.90;;;;;;;18.31;53.79;100566.59;5091013;28;20255;-79
2023/07/25 11:14:12;;;;;;;1.93;0.90;;;;;;;18.54;54.83;100573.41;5100498;28;20223;-78
2023/07/25 11:16:40;;;;;;;1.10;0.90;;;;;;;18.88;56.36;100521.47;5099267;28;20202;-81
2023/07/25 11:19:07;;;;;;;2.33;1.00;;;;;;;18.77;54.76;100529.94;5096864;28;20261;-81
2023/07/25 11:21:37;;;;;;;2.10;1.00;;;;;;;18.83;55.72;100526.16;5098587;28;20213;-80
2023/07/25 11:24:06;;;;;;;1.30;0.90;;;;;;;18.93;54.28;100539.75;5115997;22;20325;-84